createdAt,value
2018-08-11T00:00:51.522Z,95175.47
2018-08-11T00:15:51.726Z,95187.86
2018-08-11T00:30:50.579Z,95176.98
2018-08-11T00:45:50.290Z,95162.86
2018-08-11T01:00:50.354Z,95157.38
2018-08-11T01:15:51.783Z,95151.56
2018-08-11T01:30:50.754Z,95149.54
2018-08-11T01:45:50.838Z,95138.37
2018-08-11T02:00:50.782Z,95121.85
2018-08-11T02:15:51.220Z,95117.12
2018-08-11T02:30:51.188Z,95121.98
2018-08-11T02:45:51.200Z,95119.10
2018-08-11T03:00:51.307Z,95123.78
2018-08-11T03:15:50.797Z,95134.30
2018-08-11T03:30:49.988Z,95130.89
2018-08-11T03:45:50.456Z,95137.05
2018-08-11T04:00:50.123Z,95140.97
2018-08-11T04:15:51.140Z,95157.55
2018-08-11T04:30:51.076Z,95158.03
2018-08-11T04:45:51.073Z,95160.28
2018-08-11T05:00:51.074Z,95159.42
2018-08-11T05:15:50.494Z,95157.52
2018-08-11T05:30:51.442Z,95152.68
2018-08-11T05:45:51.470Z,95147.41
2018-08-11T06:00:51.440Z,95149.66
2018-08-11T06:15:50.410Z,95142.56
2018-08-11T06:30:50.943Z,95137.09
2018-08-11T06:45:50.810Z,95127.85
2018-08-11T07:00:50.303Z,95115.53
2018-08-11T07:15:51.334Z,95123.23
2018-08-11T07:30:51.301Z,95113.13
2018-08-11T07:45:51.356Z,95121.86
2018-08-11T08:00:51.158Z,95109.14
2018-08-11T08:15:50.596Z,95087.83
2018-08-11T08:30:50.747Z,95097.88
2018-08-11T08:45:50.572Z,95097.79
2018-08-11T09:00:50.672Z,95079.63
2018-08-11T09:15:51.092Z,95065.39
2018-08-11T09:30:51.401Z,95047.26
2018-08-11T09:45:51.096Z,95032.02
2018-08-11T10:15:50.430Z,95014.98
2018-08-11T10:30:54.290Z,94998.58
2018-08-11T10:45:51.534Z,94993.56
2018-08-11T11:00:53.345Z,94969.32
2018-08-11T11:15:55.137Z,94950.28
2018-08-11T11:30:50.298Z,94953.27
2018-08-11T11:45:50.797Z,94938.78
2018-08-11T12:00:51.771Z,94934.50
2018-08-11T12:15:51.185Z,94919.53
2018-08-11T12:30:51.186Z,94893.95
2018-08-11T12:45:51.260Z,94884.07
2018-08-11T13:00:51.140Z,94866.02
2018-08-11T13:15:50.650Z,94862.11
2018-08-11T13:30:50.646Z,94862.02
2018-08-11T13:45:50.606Z,94841.91
2018-08-11T14:00:50.527Z,94845.22
2018-08-11T14:15:50.443Z,94841.59
2018-08-11T14:30:50.967Z,94844.30
2018-08-11T14:45:50.961Z,94825.87
2018-08-11T15:00:50.918Z,94829.34
2018-08-11T15:15:53.349Z,94830.08
2018-08-11T15:30:51.420Z,94837.01
2018-08-11T15:45:51.351Z,94835.28
2018-08-11T16:00:52.341Z,94847.59
2018-08-11T16:15:50.747Z,94852.72
2018-08-11T16:30:50.792Z,94842.10
2018-08-11T16:45:50.721Z,94840.22
2018-08-11T17:00:51.757Z,94858.55
2018-08-11T17:15:50.390Z,94865.80
2018-08-11T17:30:50.943Z,94867.17
2018-08-11T17:45:57.064Z,94890.43
2018-08-11T18:00:51.165Z,94899.39
2018-08-11T18:15:50.538Z,94911.39
2018-08-11T18:30:51.791Z,94921.33
2018-08-11T18:45:51.150Z,94918.47
2018-08-11T19:00:54.238Z,94934.81
2018-08-11T19:15:50.970Z,94953.29
2018-08-11T19:30:50.925Z,94956.47
2018-08-11T19:45:52.747Z,94960.25
2018-08-11T20:00:50.938Z,94957.91
2018-08-11T20:30:57.433Z,94950.17
2018-08-11T20:45:51.160Z,94952.19
2018-08-11T21:00:55.819Z,94960.56
2018-08-11T21:15:52.587Z,94959.78
2018-08-11T21:30:50.739Z,94961.52
2018-08-11T21:45:50.298Z,94950.77
2018-08-11T22:00:56.719Z,94958.66
2018-08-11T22:15:50.948Z,94960.50
2018-08-11T22:30:51.296Z,94953.79
2018-08-11T22:45:51.177Z,94938.97
2018-08-11T23:00:52.138Z,94931.20
2018-08-11T23:15:50.586Z,94937.55
2018-08-11T23:30:50.341Z,94931.34
2018-08-11T23:45:50.473Z,94932.94
